createdAt,value
2023-01-21T00:01:03.473Z,2.88
2023-01-21T00:03:29.863Z,5.15
2023-01-21T00:05:56.381Z,2.30
2023-01-21T00:08:22.703Z,2.88
2023-01-21T00:10:49.151Z,7.40
2023-01-21T00:13:15.703Z,4.68
2023-01-21T00:15:42.180Z,5.30
2023-01-21T00:18:09.200Z,3.50
2023-01-21T00:20:37.422Z,4.65
2023-01-21T00:23:04.433Z,3.78
2023-01-21T00:25:31.126Z,2.63
2023-01-21T00:27:58.494Z,3.88
2023-01-21T00:30:25.145Z,4.03
2023-01-21T00:32:52.374Z,2.95
2023-01-21T00:35:18.789Z,2.95
2023-01-21T00:37:45.172Z,3.00
2023-01-21T00:40:12.124Z,4.00
2023-01-21T00:42:38.510Z,3.53
2023-01-21T00:45:05.486Z,4.03
2023-01-21T00:47:31.904Z,4.38
2023-01-21T00:49:58.260Z,7.20
2023-01-21T00:52:24.846Z,5.63
2023-01-21T00:54:51.615Z,6.10
2023-01-21T00:57:18.252Z,5.35
2023-01-21T00:59:44.794Z,6.45
2023-01-21T01:02:11.109Z,6.13
2023-01-21T01:04:37.636Z,6.43
2023-01-21T01:07:04.229Z,3.88
2023-01-21T01:09:30.941Z,5.25
2023-01-21T01:11:57.333Z,7.00
2023-01-21T01:14:24.060Z,8.25
2023-01-21T01:16:50.865Z,5.68
2023-01-21T01:19:17.581Z,5.30
2023-01-21T01:21:44.023Z,5.15
2023-01-21T01:24:10.873Z,4.35
2023-01-21T01:26:37.376Z,5.10
2023-01-21T01:29:05.390Z,3.47
2023-01-21T01:31:32.416Z,6.43
2023-01-21T01:33:59.166Z,4.78
2023-01-21T01:36:25.602Z,5.10
2023-01-21T01:38:53.928Z,5.57
2023-01-21T01:41:23.601Z,3.97
2023-01-21T01:43:56.365Z,5.85
2023-01-21T01:46:26.430Z,6.65
2023-01-21T01:49:15.895Z,4.88
2023-01-21T01:51:46.050Z,3.67
2023-01-21T01:54:17.805Z,3.20
2023-01-21T01:56:49.250Z,5.80
2023-01-21T01:59:16.179Z,4.75
2023-01-21T02:01:42.640Z,3.63
2023-01-21T02:04:14.503Z,2.42
2023-01-21T02:06:42.858Z,3.95
2023-01-21T02:09:09.359Z,4.72
2023-01-21T02:11:37.074Z,5.07
2023-01-21T02:14:04.560Z,2.42
2023-01-21T02:16:40.196Z,3.65
2023-01-21T02:19:41.123Z,4.43
2023-01-21T02:22:37.461Z,4.28
2023-01-21T02:25:28.574Z,3.83
2023-01-21T02:28:18.068Z,4.35
2023-01-21T02:31:24.767Z,2.95
2023-01-21T02:34:16.068Z,3.15
2023-01-21T02:36:58.806Z,2.40
2023-01-21T02:39:51.112Z,3.33
2023-01-21T02:42:23.589Z,2.17
2023-01-21T02:45:20.010Z,2.10
2023-01-21T02:47:52.202Z,2.75
2023-01-21T02:50:27.326Z,3.83
2023-01-21T02:53:01.441Z,3.33
2023-01-21T02:55:32.276Z,3.53
2023-01-21T02:58:02.415Z,3.92
2023-01-21T03:00:56.064Z,3.92
2023-01-21T03:03:52.860Z,2.85
2023-01-21T03:06:29.150Z,4.28
2023-01-21T03:09:17.508Z,3.63
2023-01-21T03:11:53.586Z,2.47
2023-01-21T03:14:29.643Z,3.45
2023-01-21T03:17:08.380Z,2.92
2023-01-21T03:19:48.942Z,2.30
2023-01-21T03:22:20.652Z,2.88
2023-01-21T03:24:51.061Z,2.85
2023-01-21T03:27:23.636Z,1.95
2023-01-21T03:29:55.996Z,2.15
2023-01-21T03:32:23.844Z,3.80
2023-01-21T03:34:54.795Z,2.88
2023-01-21T03:37:36.303Z,2.63
2023-01-21T03:40:13.349Z,2.38
2023-01-21T03:42:39.836Z,3.38
2023-01-21T03:45:07.496Z,3.25
2023-01-21T03:47:36.380Z,2.67
2023-01-21T03:50:15.209Z,3.20
2023-01-21T03:52:43.718Z,2.65
2023-01-21T03:55:12.242Z,2.53
2023-01-21T03:57:38.885Z,1.63
2023-01-21T04:00:06.754Z,2.03
2023-01-21T04:02:33.353Z,2.22
2023-01-21T04:04:59.830Z,3.75
2023-01-21T04:07:26.546Z,3.35
2023-01-21T04:09:55.512Z,2.47
2023-01-21T04:12:22.180Z,2.22
2023-01-21T04:14:48.495Z,2.13
2023-01-21T04:17:15.099Z,2.10
2023-01-21T04:19:41.509Z,4.22
2023-01-21T04:22:07.842Z,2.83
2023-01-21T04:24:34.798Z,2.78
2023-01-21T04:27:01.331Z,1.70
2023-01-21T04:29:27.655Z,2.72
2023-01-21T04:31:54.141Z,3.60
2023-01-21T04:34:20.721Z,2.85
2023-01-21T04:36:47.191Z,2.90
2023-01-21T04:39:13.563Z,2.38
2023-01-21T04:41:39.930Z,3.78
2023-01-21T04:44:06.558Z,3.00
2023-01-21T04:46:32.907Z,2.60
2023-01-21T04:48:59.325Z,2.70
2023-01-21T04:51:26.048Z,4.72
2023-01-21T04:53:52.685Z,1.70
2023-01-21T04:56:19.359Z,2.15
2023-01-21T04:58:45.728Z,2.50
2023-01-21T05:01:12.202Z,2.53
2023-01-21T05:03:38.701Z,3.13
2023-01-21T05:06:05.219Z,2.20
2023-01-21T05:08:31.578Z,3.50
2023-01-21T05:10:58.371Z,2.17
2023-01-21T05:13:24.680Z,3.42
2023-01-21T05:15:51.064Z,2.58
2023-01-21T05:18:17.536Z,3.65
2023-01-21T05:20:44.150Z,4.78
2023-01-21T05:23:10.604Z,2.58
2023-01-21T05:25:37.056Z,4.18
2023-01-21T05:28:04.219Z,2.33
2023-01-21T05:30:30.733Z,3.85
2023-01-21T05:32:57.434Z,2.55
2023-01-21T05:35:24.385Z,3.92
2023-01-21T05:37:51.083Z,2.78
2023-01-21T05:40:18.425Z,2.45
2023-01-21T05:42:46.405Z,2.85
2023-01-21T05:45:13.150Z,2.08
2023-01-21T05:47:39.699Z,2.83
2023-01-21T05:50:07.146Z,4.60
2023-01-21T05:52:33.566Z,2.80
2023-01-21T05:55:02.488Z,5.80
2023-01-21T05:57:29.314Z,5.63
2023-01-21T05:59:55.731Z,2.97
2023-01-21T06:02:22.525Z,3.40
2023-01-21T06:04:48.876Z,4.00
2023-01-21T06:07:15.309Z,4.05
2023-01-21T06:09:41.735Z,2.72
2023-01-21T06:12:08.144Z,4.35
2023-01-21T06:14:34.676Z,3.10
2023-01-21T06:17:01.156Z,3.53
2023-01-21T06:19:29.064Z,3.25
2023-01-21T06:21:55.650Z,4.28
2023-01-21T06:24:22.029Z,2.90
2023-01-21T06:26:48.512Z,2.58
2023-01-21T06:29:14.868Z,3.00
2023-01-21T06:31:41.611Z,6.35
2023-01-21T06:34:09.489Z,3.92
2023-01-21T06:36:35.880Z,2.63
2023-01-21T06:39:02.358Z,5.00
2023-01-21T06:41:28.733Z,3.40
2023-01-21T06:43:55.328Z,3.42
2023-01-21T06:46:21.677Z,4.05
2023-01-21T06:48:48.167Z,2.95
2023-01-21T06:51:14.786Z,2.30
2023-01-21T06:53:41.344Z,4.40
2023-01-21T06:56:07.666Z,3.55
2023-01-21T06:58:34.060Z,2.38
2023-01-21T07:01:00.673Z,4.45
2023-01-21T07:03:27.436Z,2.92
2023-01-21T07:05:53.842Z,2.92
2023-01-21T07:08:20.500Z,3.05
2023-01-21T07:10:47.823Z,3.00
2023-01-21T07:13:14.591Z,4.43
2023-01-21T07:15:41.225Z,2.55
2023-01-21T07:18:07.591Z,3.25
2023-01-21T07:20:34.103Z,3.08
2023-01-21T07:23:00.641Z,2.78
2023-01-21T07:25:26.969Z,4.07
2023-01-21T07:27:53.408Z,4.68
2023-01-21T07:30:20.845Z,3.63
2023-01-21T07:32:48.004Z,3.97
2023-01-21T07:35:15.159Z,5.03
2023-01-21T07:37:41.822Z,4.80
2023-01-21T07:40:08.935Z,5.35
2023-01-21T07:42:35.598Z,3.60
2023-01-21T07:45:02.084Z,6.57
2023-01-21T07:47:28.696Z,3.88
2023-01-21T07:49:55.493Z,4.53
2023-01-21T07:52:21.939Z,6.20
2023-01-21T07:54:48.562Z,7.28
2023-01-21T07:57:14.873Z,7.57
2023-01-21T07:59:41.316Z,3.58
2023-01-21T08:02:07.743Z,8.13
2023-01-21T08:04:34.249Z,4.85
2023-01-21T08:07:00.822Z,4.95
2023-01-21T08:09:27.192Z,3.53
2023-01-21T08:11:53.752Z,2.00
2023-01-21T08:14:20.366Z,4.80
2023-01-21T08:16:46.727Z,5.63
2023-01-21T08:19:14.005Z,3.75
2023-01-21T08:21:41.687Z,3.75
2023-01-21T08:24:10.164Z,4.55
2023-01-21T08:26:36.555Z,4.13
2023-01-21T08:29:03.087Z,4.45
2023-01-21T08:31:29.441Z,3.35
2023-01-21T08:33:55.972Z,3.50
2023-01-21T08:36:22.384Z,4.13
2023-01-21T08:38:53.215Z,3.95
2023-01-21T08:41:19.780Z,3.83
2023-01-21T08:43:46.134Z,4.20
2023-01-21T08:46:13.377Z,4.35
2023-01-21T08:48:40.236Z,3.92
2023-01-21T08:51:06.700Z,4.55
2023-01-21T08:53:33.088Z,4.60
2023-01-21T08:56:00.722Z,4.10
2023-01-21T08:58:28.012Z,3.08
2023-01-21T09:00:54.854Z,2.83
2023-01-21T09:03:21.519Z,4.50
2023-01-21T09:05:48.631Z,4.40
2023-01-21T09:08:15.116Z,3.70
2023-01-21T09:10:41.549Z,4.47
2023-01-21T09:13:09.274Z,4.43
2023-01-21T09:15:42.737Z,4.82
2023-01-21T09:18:09.378Z,3.58
2023-01-21T09:20:36.076Z,2.63
2023-01-21T09:23:02.648Z,2.50
2023-01-21T09:25:28.956Z,3.78
2023-01-21T09:27:55.643Z,4.55
2023-01-21T09:30:21.982Z,3.95
2023-01-21T09:32:48.655Z,2.92
2023-01-21T09:35:15.223Z,2.67
2023-01-21T09:37:41.707Z,2.83
2023-01-21T09:40:16.296Z,2.65
2023-01-21T09:42:43.008Z,1.33
2023-01-21T09:45:15.215Z,3.95
2023-01-21T09:47:44.854Z,4.78
2023-01-21T09:50:14.651Z,3.95
2023-01-21T09:52:48.027Z,4.25
2023-01-21T09:55:21.374Z,2.97
2023-01-21T09:58:11.529Z,3.88
2023-01-21T10:00:52.175Z,2.65
2023-01-21T10:03:32.271Z,3.08
2023-01-21T10:06:24.519Z,2.53
2023-01-21T10:09:00.010Z,2.63
2023-01-21T10:11:55.884Z,2.33
2023-01-21T10:14:59.271Z,4.88
2023-01-21T10:17:52.080Z,4.38
2023-01-21T10:20:33.660Z,4.25
2023-01-21T10:23:12.157Z,2.65
2023-01-21T10:25:40.314Z,2.28
2023-01-21T10:28:16.708Z,3.10
2023-01-21T10:30:46.049Z,3.00
2023-01-21T10:33:25.453Z,3.40
2023-01-21T10:36:15.331Z,2.28
2023-01-21T10:38:55.948Z,2.22
2023-01-21T10:41:53.582Z,2.63
2023-01-21T10:44:44.429Z,3.35
2023-01-21T10:47:47.829Z,2.22
2023-01-21T10:50:41.487Z,2.47
2023-01-21T10:53:34.124Z,2.80
2023-01-21T10:56:13.920Z,2.22
2023-01-21T10:58:48.985Z,2.88
2023-01-21T11:01:29.717Z,3.28
2023-01-21T11:04:07.635Z,3.13
2023-01-21T11:06:35.299Z,2.22
2023-01-21T11:09:04.135Z,2.88
2023-01-21T11:11:33.078Z,3.67
2023-01-21T11:14:00.235Z,4.05
2023-01-21T11:16:49.483Z,2.42
2023-01-21T11:19:28.397Z,3.47
2023-01-21T11:22:01.817Z,1.63
2023-01-21T11:24:28.700Z,2.78
2023-01-21T11:27:00.061Z,2.97
2023-01-21T11:29:37.989Z,2.17
2023-01-21T11:32:22.403Z,2.33
2023-01-21T11:34:51.501Z,2.72
2023-01-21T11:37:27.047Z,1.40
2023-01-21T11:40:00.747Z,2.33
2023-01-21T11:42:27.698Z,4.32
2023-01-21T11:44:57.150Z,2.58
2023-01-21T11:47:36.338Z,3.60
2023-01-21T11:50:18.997Z,2.13
2023-01-21T11:52:46.137Z,2.53
2023-01-21T11:55:21.613Z,2.00
2023-01-21T11:57:55.046Z,3.60
2023-01-21T12:00:27.685Z,2.00
2023-01-21T12:03:01.405Z,1.45
2023-01-21T12:05:40.225Z,2.10
2023-01-21T12:08:07.501Z,2.50
2023-01-21T12:10:42.478Z,1.80
2023-01-21T12:13:22.137Z,1.85
2023-01-21T12:16:16.290Z,2.28
2023-01-21T12:19:16.133Z,2.70
2023-01-21T12:22:20.217Z,2.28
2023-01-21T12:25:13.220Z,2.03
2023-01-21T12:28:06.693Z,2.65
2023-01-21T12:30:38.944Z,2.75
2023-01-21T12:33:31.329Z,2.00
2023-01-21T12:36:10.025Z,1.65
2023-01-21T12:38:42.957Z,1.05
2023-01-21T12:41:16.087Z,1.50
2023-01-21T12:44:15.992Z,1.40
2023-01-21T12:46:47.783Z,1.40
2023-01-21T12:49:24.929Z,1.63
2023-01-21T12:51:59.118Z,1.80
2023-01-21T12:54:48.732Z,1.83
2023-01-21T12:57:29.839Z,1.50
2023-01-21T13:00:03.887Z,0.80
2023-01-21T13:02:46.207Z,2.95
2023-01-21T13:05:27.476Z,1.05
2023-01-21T13:08:04.886Z,1.67
2023-01-21T13:10:39.283Z,0.95
2023-01-21T13:13:28.792Z,1.47
2023-01-21T13:16:02.043Z,1.85
2023-01-21T13:18:37.910Z,1.60
2023-01-21T13:21:39.616Z,1.38
2023-01-21T13:24:32.196Z,1.23
2023-01-21T13:27:27.139Z,2.33
2023-01-21T13:30:03.509Z,1.50
2023-01-21T13:32:56.357Z,1.15
2023-01-21T13:35:29.511Z,2.88
2023-01-21T13:38:05.814Z,0.70
2023-01-21T13:40:57.177Z,1.50
2023-01-21T13:43:43.726Z,1.35
2023-01-21T13:46:30.676Z,1.17
2023-01-21T13:49:10.096Z,2.50
2023-01-21T13:51:54.005Z,0.90
2023-01-21T13:54:36.527Z,2.15
2023-01-21T13:57:12.485Z,2.00
2023-01-21T13:59:53.565Z,2.30
2023-01-21T14:02:23.523Z,2.10
2023-01-21T14:05:02.093Z,1.80
2023-01-21T14:07:35.106Z,1.73
2023-01-21T14:10:08.941Z,2.88
2023-01-21T14:13:00.379Z,2.95
2023-01-21T14:15:34.002Z,1.13
2023-01-21T14:18:26.856Z,2.15
2023-01-21T14:21:44.711Z,1.67
2023-01-21T14:24:35.724Z,3.28
2023-01-21T14:27:16.903Z,1.90
2023-01-21T14:29:49.159Z,1.92
2023-01-21T14:32:34.324Z,1.60
2023-01-21T14:35:15.644Z,1.73
2023-01-21T14:37:52.437Z,1.20
2023-01-21T14:40:31.526Z,1.65
2023-01-21T14:42:58.160Z,1.77
2023-01-21T14:45:55.029Z,1.35
2023-01-21T14:48:34.643Z,1.10
2023-01-21T14:51:06.904Z,1.40
2023-01-21T14:53:47.336Z,1.02
2023-01-21T14:56:22.610Z,2.08
2023-01-21T14:58:53.098Z,1.70
2023-01-21T15:01:33.709Z,1.25
2023-01-21T15:04:03.188Z,1.58
2023-01-21T15:06:30.045Z,2.83
2023-01-21T15:08:59.410Z,2.25
2023-01-21T15:11:36.091Z,2.00
2023-01-21T15:14:05.124Z,2.10
2023-01-21T15:16:39.968Z,1.33
2023-01-21T15:19:12.312Z,2.45
2023-01-21T15:21:41.744Z,1.30
2023-01-21T15:24:38.493Z,1.38
2023-01-21T15:27:23.643Z,1.13
2023-01-21T15:29:55.916Z,0.90
2023-01-21T15:32:37.701Z,2.38
2023-01-21T15:35:24.089Z,2.45
2023-01-21T15:38:01.681Z,1.27
2023-01-21T15:40:52.928Z,2.13
2023-01-21T15:43:47.126Z,3.00
2023-01-21T15:46:20.740Z,3.17
2023-01-21T15:48:58.720Z,1.25
2023-01-21T15:51:45.755Z,2.20
2023-01-21T15:54:30.047Z,1.65
2023-01-21T15:57:12.267Z,2.05
2023-01-21T16:00:07.897Z,1.23
2023-01-21T16:02:55.082Z,2.05
2023-01-21T16:05:29.309Z,1.90
2023-01-21T16:08:14.669Z,3.40
2023-01-21T16:11:09.033Z,1.65
2023-01-21T16:14:08.249Z,2.17
2023-01-21T16:17:07.977Z,1.50
2023-01-21T16:19:39.800Z,3.20
2023-01-21T16:22:09.378Z,3.05
2023-01-21T16:24:41.651Z,2.92
2023-01-21T16:27:25.768Z,1.88
2023-01-21T16:30:02.583Z,3.10
2023-01-21T16:32:29.527Z,2.38
2023-01-21T16:34:55.870Z,2.95
2023-01-21T16:37:27.010Z,3.28
2023-01-21T16:40:08.537Z,2.95
2023-01-21T16:42:37.215Z,0.90
2023-01-21T16:45:19.370Z,3.13
2023-01-21T16:47:54.015Z,4.30
2023-01-21T16:50:23.701Z,3.17
2023-01-21T16:52:52.054Z,2.67
2023-01-21T16:55:21.130Z,2.72
2023-01-21T16:57:53.435Z,6.32
2023-01-21T17:00:31.750Z,2.97
2023-01-21T17:02:59.867Z,2.85
2023-01-21T17:05:30.118Z,3.47
2023-01-21T17:08:09.531Z,3.78
2023-01-21T17:10:51.983Z,3.88
2023-01-21T17:13:18.573Z,2.40
2023-01-21T17:15:52.212Z,2.65
2023-01-21T17:18:27.170Z,3.17
2023-01-21T17:21:04.545Z,2.13
2023-01-21T17:23:38.266Z,2.80
2023-01-21T17:26:13.720Z,2.67
2023-01-21T17:28:46.270Z,2.00
2023-01-21T17:31:15.572Z,1.35
2023-01-21T17:33:45.174Z,2.55
2023-01-21T17:36:13.794Z,3.20
2023-01-21T17:38:45.304Z,2.85
2023-01-21T17:41:26.333Z,2.85
2023-01-21T17:43:56.159Z,3.40
2023-01-21T17:46:24.184Z,2.40
2023-01-21T17:48:55.126Z,2.25
2023-01-21T17:51:27.920Z,2.17
2023-01-21T17:53:58.281Z,1.63
2023-01-21T17:56:38.395Z,2.33
2023-01-21T17:59:29.869Z,2.63
2023-01-21T18:01:56.404Z,2.85
2023-01-21T18:04:23.033Z,1.95
2023-01-21T18:06:50.750Z,2.33
2023-01-21T18:09:19.610Z,2.88
2023-01-21T18:11:47.561Z,1.38
2023-01-21T18:14:16.908Z,1.95
2023-01-21T18:16:43.833Z,3.15
2023-01-21T18:19:31.216Z,1.70
2023-01-21T18:21:58.453Z,1.40
2023-01-21T18:24:25.239Z,2.65
2023-01-21T18:26:52.222Z,3.05
2023-01-21T18:29:19.125Z,1.58
2023-01-21T18:31:46.132Z,2.25
2023-01-21T18:34:12.798Z,2.55
2023-01-21T18:36:40.581Z,3.00
2023-01-21T18:39:12.222Z,2.30
2023-01-21T18:41:38.910Z,2.65
2023-01-21T18:44:05.294Z,4.07
2023-01-21T18:46:31.691Z,2.45
2023-01-21T18:48:58.065Z,1.83
2023-01-21T18:51:24.659Z,2.20
2023-01-21T18:53:51.061Z,1.90
2023-01-21T18:56:17.579Z,1.98
2023-01-21T18:58:43.910Z,1.23
2023-01-21T19:01:22.675Z,1.50
2023-01-21T19:03:52.604Z,2.42
2023-01-21T19:06:19.010Z,2.78
2023-01-21T19:08:45.320Z,2.60
2023-01-21T19:11:12.599Z,2.25
2023-01-21T19:13:39.002Z,2.72
2023-01-21T19:16:06.174Z,2.88
2023-01-21T19:18:32.628Z,2.13
2023-01-21T19:20:58.998Z,2.88
2023-01-21T19:23:25.605Z,2.05
2023-01-21T19:25:55.372Z,2.38
2023-01-21T19:28:23.347Z,1.05
2023-01-21T19:30:50.016Z,1.05
2023-01-21T19:33:16.661Z,1.77
2023-01-21T19:35:45.358Z,1.55
2023-01-21T19:38:15.336Z,1.70
2023-01-21T19:40:42.076Z,1.38
2023-01-21T19:43:13.216Z,1.95
2023-01-21T19:45:39.778Z,2.53
2023-01-21T19:48:12.421Z,1.52
2023-01-21T19:50:39.000Z,2.08
2023-01-21T19:53:05.306Z,2.00
2023-01-21T19:55:35.026Z,2.42
2023-01-21T19:58:04.655Z,1.40
2023-01-21T20:00:34.124Z,2.33
2023-01-21T20:03:01.225Z,1.80
2023-01-21T20:05:30.131Z,1.70
2023-01-21T20:07:56.552Z,1.05
2023-01-21T20:10:26.902Z,1.80
2023-01-21T20:12:53.902Z,2.65
2023-01-21T20:15:32.831Z,2.40
2023-01-21T20:18:01.268Z,2.38
2023-01-21T20:20:30.419Z,1.67
2023-01-21T20:22:57.218Z,2.28
2023-01-21T20:25:26.352Z,1.08
2023-01-21T20:27:56.593Z,1.75
2023-01-21T20:30:27.275Z,0.93
2023-01-21T20:32:54.408Z,1.55
2023-01-21T20:35:23.176Z,2.00
2023-01-21T20:37:52.353Z,1.85
2023-01-21T20:40:23.858Z,1.23
2023-01-21T20:42:50.831Z,1.00
2023-01-21T20:45:19.106Z,1.08
2023-01-21T20:47:50.512Z,1.13
2023-01-21T20:50:26.242Z,1.20
2023-01-21T20:52:53.735Z,1.63
2023-01-21T20:55:22.120Z,2.20
2023-01-21T20:57:48.661Z,0.82
2023-01-21T21:00:27.062Z,1.40
2023-01-21T21:02:53.980Z,0.95
2023-01-21T21:05:20.558Z,0.73
2023-01-21T21:07:47.058Z,1.65
2023-01-21T21:10:20.902Z,1.40
2023-01-21T21:12:48.711Z,0.80
2023-01-21T21:15:16.202Z,0.95
2023-01-21T21:17:43.521Z,1.35
2023-01-21T21:20:16.102Z,1.05
2023-01-21T21:22:42.802Z,1.27
2023-01-21T21:25:14.606Z,0.63
2023-01-21T21:27:41.275Z,0.60
2023-01-21T21:30:19.019Z,0.45
2023-01-21T21:32:46.004Z,0.70
2023-01-21T21:35:34.129Z,0.77
2023-01-21T21:38:05.806Z,0.55
2023-01-21T21:40:32.489Z,1.02
2023-01-21T21:42:58.961Z,0.55
2023-01-21T21:45:25.281Z,0.90
2023-01-21T21:47:51.719Z,1.23
2023-01-21T21:50:18.111Z,1.70
2023-01-21T21:52:44.630Z,0.17
2023-01-21T21:55:10.960Z,1.20
2023-01-21T21:57:37.346Z,0.40
2023-01-21T22:00:03.987Z,1.20
2023-01-21T22:02:30.403Z,0.20
2023-01-21T22:04:56.976Z,1.38
2023-01-21T22:07:23.447Z,0.77
2023-01-21T22:09:49.759Z,0.60
2023-01-21T22:12:16.203Z,0.40
2023-01-21T22:14:42.587Z,1.42
2023-01-21T22:17:09.008Z,1.23
2023-01-21T22:19:37.667Z,1.35
2023-01-21T22:22:04.236Z,1.45
2023-01-21T22:24:30.920Z,0.43
2023-01-21T22:26:57.346Z,0.65
2023-01-21T22:29:23.791Z,0.60
2023-01-21T22:31:50.335Z,0.50
2023-01-21T22:34:16.852Z,0.52
2023-01-21T22:36:43.609Z,0.50
2023-01-21T22:39:11.726Z,0.88
2023-01-21T22:41:38.074Z,0.40
2023-01-21T22:44:04.588Z,0.57
2023-01-21T22:46:31.004Z,0.22
2023-01-21T22:48:57.740Z,0.70
2023-01-21T22:51:25.122Z,1.27
2023-01-21T22:53:52.736Z,0.20
2023-01-21T22:56:39.970Z,0.20
2023-01-21T22:59:10.545Z,0.25
2023-01-21T23:01:36.997Z,0.55
2023-01-21T23:04:03.378Z,0.50
2023-01-21T23:06:29.923Z,0.85
2023-01-21T23:08:56.401Z,0.45
2023-01-21T23:11:23.294Z,0.30
2023-01-21T23:13:49.836Z,0.15
2023-01-21T23:16:18.347Z,0.70
2023-01-21T23:18:44.935Z,0.57
2023-01-21T23:21:17.089Z,0.30
2023-01-21T23:23:43.563Z,0.45
2023-01-21T23:26:11.210Z,0.63
2023-01-21T23:28:37.874Z,0.73
2023-01-21T23:31:06.236Z,0.32
2023-01-21T23:33:33.163Z,0.30
2023-01-21T23:35:59.840Z,0.82
2023-01-21T23:38:27.891Z,0.30
2023-01-21T23:40:55.028Z,0.20
2023-01-21T23:43:27.870Z,0.25
2023-01-21T23:45:55.106Z,0.65
2023-01-21T23:48:22.590Z,0.90
2023-01-21T23:50:49.220Z,0.20
2023-01-21T23:53:15.757Z,0.20
2023-01-21T23:55:42.414Z,0.22
2023-01-21T23:58:08.875Z,0.45
